createdAt,value
2019-03-13T00:02:16.396Z,3.85
2019-03-13T00:04:43.016Z,3.81
2019-03-13T00:07:09.681Z,3.82
2019-03-13T00:09:36.246Z,3.80
2019-03-13T00:12:02.995Z,3.85
2019-03-13T00:14:29.556Z,3.81
2019-03-13T00:16:56.077Z,3.78
2019-03-13T00:19:22.731Z,3.78
2019-03-13T00:21:49.383Z,3.76
2019-03-13T00:24:16.115Z,3.75
2019-03-13T00:26:42.903Z,3.75
2019-03-13T00:29:09.460Z,3.74
2019-03-13T00:31:36.145Z,3.77
2019-03-13T00:34:02.873Z,3.75
2019-03-13T00:36:29.457Z,3.72
2019-03-13T00:38:56.248Z,3.72
2019-03-13T00:41:23.100Z,3.72
2019-03-13T00:43:49.775Z,3.69
2019-03-13T00:46:16.468Z,3.65
2019-03-13T00:48:42.985Z,3.64
2019-03-13T00:51:09.641Z,3.64
2019-03-13T00:53:36.190Z,3.59
2019-03-13T00:56:02.961Z,3.61
2019-03-13T00:58:29.742Z,3.59
2019-03-13T01:01:05.043Z,3.54
2019-03-13T01:03:57.610Z,3.42
2019-03-13T01:06:27.059Z,3.36
2019-03-13T01:08:53.761Z,3.25
2019-03-13T01:11:20.425Z,3.16
2019-03-13T01:13:47.154Z,3.18
2019-03-13T01:16:13.993Z,3.22
2019-03-13T01:18:40.655Z,3.27
2019-03-13T01:21:07.403Z,3.32
2019-03-13T01:23:33.991Z,3.35
2019-03-13T01:26:00.896Z,3.37
2019-03-13T01:28:27.529Z,3.39
2019-03-13T01:31:05.624Z,3.45
2019-03-13T01:33:32.179Z,3.45
2019-03-13T01:36:01.030Z,3.50
2019-03-13T01:38:27.724Z,3.55
2019-03-13T01:40:54.245Z,3.56
2019-03-13T01:43:20.919Z,3.55
2019-03-13T01:45:47.735Z,3.59
2019-03-13T01:48:14.489Z,3.59
2019-03-13T01:50:41.383Z,3.58
2019-03-13T01:53:07.906Z,3.59
2019-03-13T01:55:34.686Z,3.56
2019-03-13T01:58:01.521Z,3.57
2019-03-13T02:00:28.282Z,3.57
2019-03-13T02:02:54.955Z,3.58
2019-03-13T02:05:21.631Z,3.58
2019-03-13T02:07:48.182Z,3.58
2019-03-13T02:10:14.816Z,3.58
2019-03-13T02:12:41.534Z,3.59
2019-03-13T02:15:08.936Z,3.58
2019-03-13T02:17:35.704Z,3.56
2019-03-13T02:20:02.526Z,3.53
2019-03-13T02:22:29.162Z,3.54
2019-03-13T02:24:55.896Z,3.57
2019-03-13T02:27:22.520Z,3.57
2019-03-13T02:29:49.154Z,3.58
2019-03-13T02:32:15.768Z,3.59
2019-03-13T02:34:42.393Z,3.58
2019-03-13T02:37:09.200Z,3.53
2019-03-13T02:39:35.832Z,3.52
2019-03-13T02:42:02.689Z,3.52
2019-03-13T02:44:29.201Z,3.49
2019-03-13T02:46:55.883Z,3.46
2019-03-13T02:49:22.441Z,3.40
2019-03-13T02:51:49.029Z,3.38
2019-03-13T02:54:15.818Z,3.39
2019-03-13T02:56:43.432Z,3.39
2019-03-13T02:59:10.182Z,3.32
2019-03-13T03:01:51.255Z,3.36
2019-03-13T03:04:17.830Z,3.36
2019-03-13T03:06:44.498Z,3.36
2019-03-13T03:09:11.419Z,3.37
2019-03-13T03:11:38.081Z,3.40
2019-03-13T03:14:04.810Z,3.41
2019-03-13T03:16:31.656Z,3.43
2019-03-13T03:18:58.440Z,3.54
2019-03-13T03:21:25.199Z,3.68
2019-03-13T03:23:51.757Z,3.98
2019-03-13T03:26:18.622Z,4.22
2019-03-13T03:28:45.414Z,4.45
2019-03-13T03:31:12.352Z,4.82
2019-03-13T03:33:38.905Z,5.22
2019-03-13T03:36:05.660Z,5.52
2019-03-13T03:38:32.312Z,5.75
2019-03-13T03:40:59.004Z,6.03
2019-03-13T03:43:40.263Z,6.24
2019-03-13T03:45:58.551Z,6.41
2019-03-13T03:48:25.234Z,6.55
2019-03-13T03:50:52.022Z,6.54
2019-03-13T03:53:18.946Z,6.44
2019-03-13T03:55:45.731Z,6.36
2019-03-13T03:58:12.508Z,6.27
2019-03-13T04:00:39.420Z,6.22
2019-03-13T04:03:06.092Z,6.22
2019-03-13T04:05:32.728Z,6.19
2019-03-13T04:07:59.431Z,6.17
2019-03-13T04:10:26.179Z,6.14
2019-03-13T04:12:53.003Z,6.14
2019-03-13T04:15:19.815Z,6.12
2019-03-13T04:17:48.691Z,6.12
2019-03-13T04:20:15.600Z,6.13
2019-03-13T04:22:42.257Z,6.13
2019-03-13T04:25:16.527Z,6.13
2019-03-13T04:27:43.449Z,6.12
2019-03-13T04:30:10.368Z,6.07
2019-03-13T04:32:36.910Z,5.98
2019-03-13T04:35:03.885Z,5.83
2019-03-13T04:37:30.516Z,5.69
2019-03-13T04:39:57.412Z,5.57
2019-03-13T04:42:24.123Z,5.45
2019-03-13T04:44:50.942Z,5.38
2019-03-13T04:47:17.653Z,5.33
2019-03-13T04:49:44.444Z,5.31
2019-03-13T04:52:11.024Z,5.31
2019-03-13T04:54:37.594Z,5.34
2019-03-13T04:57:04.360Z,5.34
2019-03-13T04:59:30.999Z,5.36
2019-03-13T05:01:57.900Z,5.39
2019-03-13T05:04:24.646Z,5.44
2019-03-13T05:06:51.314Z,5.46
2019-03-13T05:09:21.278Z,5.42
2019-03-13T05:11:48.078Z,5.27
2019-03-13T05:14:14.764Z,5.15
2019-03-13T05:16:41.607Z,5.03
2019-03-13T05:19:08.304Z,4.91
2019-03-13T05:21:35.044Z,4.85
2019-03-13T05:24:01.809Z,4.83
2019-03-13T05:26:28.599Z,4.76
2019-03-13T05:28:55.532Z,4.71
2019-03-13T05:31:23.195Z,4.63
2019-03-13T05:33:50.083Z,4.63
2019-03-13T05:36:17.262Z,4.62
2019-03-13T05:38:44.105Z,4.62
2019-03-13T05:41:10.915Z,4.60
2019-03-13T05:43:37.554Z,4.61
2019-03-13T05:46:04.572Z,4.60
2019-03-13T05:48:31.387Z,4.62
2019-03-13T05:50:58.110Z,4.56
2019-03-13T05:53:24.814Z,4.50
2019-03-13T05:55:51.484Z,4.44
2019-03-13T05:58:18.256Z,4.44
2019-03-13T06:00:44.923Z,4.40
2019-03-13T06:03:11.599Z,4.34
2019-03-13T06:05:38.446Z,4.32
2019-03-13T06:08:05.207Z,4.33
2019-03-13T06:10:31.950Z,4.31
2019-03-13T06:12:58.699Z,4.27
2019-03-13T06:15:25.528Z,4.23
2019-03-13T06:17:52.300Z,4.22
2019-03-13T06:20:18.833Z,4.22
2019-03-13T06:22:45.698Z,4.24
2019-03-13T06:25:12.543Z,4.25
2019-03-13T06:27:39.368Z,4.29
2019-03-13T06:30:07.658Z,4.30
2019-03-13T06:32:34.240Z,4.36
2019-03-13T06:35:00.938Z,4.48
2019-03-13T06:37:27.566Z,4.68
2019-03-13T06:39:54.269Z,4.95
2019-03-13T06:42:21.144Z,5.24
2019-03-13T06:44:47.926Z,5.48
2019-03-13T06:47:14.726Z,5.65
2019-03-13T06:49:41.403Z,5.77
2019-03-13T06:52:08.159Z,5.89
2019-03-13T06:54:34.813Z,5.98
2019-03-13T06:57:02.694Z,6.05
2019-03-13T06:59:34.110Z,6.14
2019-03-13T07:02:09.731Z,6.21
2019-03-13T07:04:54.879Z,6.32
2019-03-13T07:07:50.354Z,6.38
2019-03-13T07:10:22.669Z,6.51
2019-03-13T07:13:12.038Z,6.64
2019-03-13T07:15:49.679Z,6.77
2019-03-13T07:18:27.327Z,6.93
2019-03-13T07:21:23.207Z,7.14
2019-03-13T07:24:23.387Z,7.48
2019-03-13T07:27:08.550Z,7.76
2019-03-13T07:29:41.815Z,7.87
2019-03-13T07:32:14.202Z,7.99
2019-03-13T07:35:00.398Z,8.09
2019-03-13T07:37:38.402Z,8.14
2019-03-13T07:40:26.133Z,8.30
2019-03-13T07:43:21.262Z,8.27
2019-03-13T07:46:22.848Z,8.43
2019-03-13T07:48:56.160Z,8.63
2019-03-13T07:51:41.338Z,8.88
2019-03-13T07:54:33.513Z,8.98
2019-03-13T07:57:12.616Z,9.16
2019-03-13T07:59:47.486Z,9.26
2019-03-13T08:02:29.800Z,9.13
2019-03-13T08:05:10.037Z,9.00
2019-03-13T08:07:45.775Z,8.67
2019-03-13T08:10:32.102Z,8.40
2019-03-13T08:13:17.090Z,8.34
2019-03-13T08:15:54.100Z,8.40
2019-03-13T08:18:40.948Z,8.49
2019-03-13T08:21:36.054Z,8.42
2019-03-13T08:24:25.222Z,8.07
2019-03-13T08:27:10.139Z,7.95
2019-03-13T08:29:56.545Z,8.17
2019-03-13T08:32:46.619Z,9.15
2019-03-13T08:35:20.640Z,9.83
2019-03-13T08:37:54.592Z,11.20
2019-03-13T08:40:35.939Z,12.76
2019-03-13T08:43:25.126Z,14.00
2019-03-13T08:46:09.806Z,15.01
2019-03-13T08:48:58.949Z,16.40
2019-03-13T08:52:00.576Z,17.98
2019-03-13T08:54:44.307Z,20.04
2019-03-13T08:57:19.721Z,20.67
2019-03-13T09:00:04.852Z,20.83
2019-03-13T09:02:43.082Z,19.84
2019-03-13T09:05:32.101Z,18.00
2019-03-13T09:08:10.157Z,16.33
2019-03-13T09:10:54.237Z,17.13
2019-03-13T09:13:32.472Z,16.76
2019-03-13T09:16:25.967Z,16.24
2019-03-13T09:19:20.009Z,15.29
2019-03-13T09:22:15.206Z,14.86
2019-03-13T09:25:11.942Z,13.45
2019-03-13T09:27:52.543Z,12.22
2019-03-13T09:30:38.050Z,11.51
2019-03-13T09:33:19.773Z,11.30
2019-03-13T09:36:06.163Z,11.12
2019-03-13T09:38:50.922Z,11.79
2019-03-13T09:41:37.252Z,13.09
2019-03-13T09:44:38.848Z,13.93
2019-03-13T09:47:12.458Z,14.97
2019-03-13T09:49:57.622Z,15.86
2019-03-13T09:52:48.764Z,17.00
2019-03-13T09:55:25.104Z,18.79
2019-03-13T09:58:19.084Z,19.46
2019-03-13T10:01:05.374Z,19.05
2019-03-13T10:03:40.629Z,18.36
2019-03-13T10:09:20.504Z,15.39
2019-03-13T10:12:00.278Z,14.15
2019-03-13T10:14:49.241Z,13.19
2019-03-13T10:17:44.641Z,12.48
2019-03-13T10:20:42.975Z,11.97
2019-03-13T10:23:38.025Z,11.58
2019-03-13T10:26:27.052Z,11.20
2019-03-13T10:29:05.979Z,11.30
2019-03-13T10:31:41.571Z,12.49
2019-03-13T10:34:21.576Z,12.55
2019-03-13T10:37:20.100Z,12.81
2019-03-13T10:39:57.483Z,12.61
2019-03-13T10:42:42.637Z,11.87
2019-03-13T10:45:21.644Z,11.93
2019-03-13T10:48:07.952Z,13.08
2019-03-13T10:50:56.917Z,13.80
2019-03-13T10:53:42.109Z,14.03
2019-03-13T10:56:21.165Z,13.26
2019-03-13T10:59:04.297Z,13.07
2019-03-13T11:01:39.790Z,12.70
2019-03-13T11:04:24.335Z,11.88
2019-03-13T11:06:57.497Z,11.59
2019-03-13T11:09:35.032Z,11.65
2019-03-13T11:12:18.739Z,12.82
2019-03-13T11:15:03.144Z,12.89
2019-03-13T11:17:46.629Z,12.93
2019-03-13T11:20:33.093Z,13.20
2019-03-13T11:23:15.391Z,12.86
2019-03-13T11:25:50.928Z,13.28
2019-03-13T11:28:32.721Z,13.01
2019-03-13T11:31:19.144Z,12.67
2019-03-13T11:33:56.674Z,12.01
2019-03-13T11:36:40.036Z,11.34
2019-03-13T11:39:25.511Z,10.71
2019-03-13T11:42:23.819Z,10.46
2019-03-13T11:44:58.878Z,10.11
2019-03-13T11:47:41.859Z,10.14
2019-03-13T11:50:26.614Z,10.05
2019-03-13T11:53:11.104Z,9.98
2019-03-13T11:55:53.549Z,9.81
2019-03-13T11:58:45.795Z,9.77
2019-03-13T12:01:23.405Z,9.68
2019-03-13T12:03:57.432Z,9.66
2019-03-13T12:06:46.860Z,9.83
2019-03-13T12:09:31.856Z,10.18
2019-03-13T12:12:26.393Z,10.39
2019-03-13T12:15:05.325Z,10.95
2019-03-13T12:18:06.929Z,11.89
2019-03-13T12:20:44.989Z,12.32
2019-03-13T12:23:37.232Z,12.46
2019-03-13T12:26:26.819Z,12.45
2019-03-13T12:29:06.072Z,13.30
2019-03-13T12:31:55.914Z,14.78
2019-03-13T12:34:28.736Z,14.76
2019-03-13T12:37:15.559Z,14.54
2019-03-13T12:40:11.231Z,13.85
2019-03-13T12:42:53.417Z,13.20
2019-03-13T12:45:31.065Z,12.49
2019-03-13T12:48:19.041Z,11.99
2019-03-13T12:50:57.511Z,11.76
2019-03-13T12:53:45.434Z,11.49
2019-03-13T12:56:30.274Z,11.36
2019-03-13T12:59:13.005Z,11.43
2019-03-13T13:01:45.878Z,11.53
2019-03-13T13:04:28.821Z,11.69
2019-03-13T13:07:18.082Z,11.32
2019-03-13T13:10:07.348Z,11.09
2019-03-13T13:12:54.024Z,11.11
2019-03-13T13:15:40.323Z,11.41
2019-03-13T13:18:24.494Z,11.48
2019-03-13T13:20:52.278Z,11.40
2019-03-13T13:23:19.082Z,11.26
2019-03-13T13:25:45.908Z,11.15
2019-03-13T13:28:12.597Z,11.13
2019-03-13T13:30:39.336Z,10.98
2019-03-13T13:33:06.158Z,11.00
2019-03-13T13:35:32.813Z,11.00
2019-03-13T13:37:59.566Z,11.25
2019-03-13T13:40:26.303Z,11.40
2019-03-13T13:42:52.979Z,11.43
2019-03-13T13:45:45.129Z,11.33
2019-03-13T13:48:11.929Z,11.29
2019-03-13T13:50:38.738Z,11.08
2019-03-13T13:53:05.465Z,10.60
2019-03-13T13:55:32.138Z,10.28
2019-03-13T13:57:58.970Z,9.71
2019-03-13T14:00:25.795Z,9.60
2019-03-13T14:02:52.446Z,9.85
2019-03-13T14:05:19.195Z,9.78
2019-03-13T14:07:45.887Z,9.84
2019-03-13T14:10:12.677Z,9.81
2019-03-13T14:12:39.356Z,9.76
2019-03-13T14:15:06.147Z,9.98
2019-03-13T14:17:32.899Z,10.01
2019-03-13T14:19:59.621Z,9.88
2019-03-13T14:22:26.309Z,9.78
2019-03-13T14:24:52.965Z,9.88
2019-03-13T14:27:19.758Z,9.75
2019-03-13T14:29:47.396Z,9.67
2019-03-13T14:32:14.093Z,9.58
2019-03-13T14:34:41.002Z,9.60
2019-03-13T14:37:07.811Z,9.93
2019-03-13T14:39:34.528Z,10.52
2019-03-13T14:42:01.381Z,11.02
2019-03-13T14:44:28.052Z,10.63
2019-03-13T14:46:54.765Z,9.84
2019-03-13T14:49:21.595Z,9.46
2019-03-13T14:51:48.377Z,9.57
2019-03-13T14:54:15.030Z,9.96
2019-03-13T14:56:41.729Z,10.35
2019-03-13T14:59:08.407Z,10.76
2019-03-13T15:01:36.203Z,11.20
2019-03-13T15:04:03.020Z,11.49
2019-03-13T15:06:29.567Z,11.57
2019-03-13T15:08:56.265Z,12.27
2019-03-13T15:11:23.057Z,13.37
2019-03-13T15:13:49.857Z,14.29
2019-03-13T15:16:16.499Z,15.10
2019-03-13T15:18:43.176Z,16.54
2019-03-13T15:21:09.945Z,16.62
2019-03-13T15:23:36.615Z,16.46
2019-03-13T15:26:03.409Z,15.79
2019-03-13T15:28:30.074Z,15.09
2019-03-13T15:30:57.827Z,13.88
2019-03-13T15:33:24.543Z,13.48
2019-03-13T15:35:51.225Z,13.30
2019-03-13T15:38:18.051Z,12.82
2019-03-13T15:40:44.875Z,12.15
2019-03-13T15:43:11.606Z,11.78
2019-03-13T15:45:38.277Z,11.18
2019-03-13T15:48:05.029Z,11.00
2019-03-13T15:50:31.746Z,10.70
2019-03-13T15:52:58.569Z,10.47
2019-03-13T15:55:25.415Z,10.36
2019-03-13T15:57:52.202Z,10.01
2019-03-13T16:00:20.359Z,9.93
2019-03-13T16:02:47.174Z,9.79
2019-03-13T16:05:13.950Z,9.78
2019-03-13T16:07:40.766Z,9.60
2019-03-13T16:10:08.651Z,9.58
2019-03-13T16:12:35.313Z,9.47
2019-03-13T16:15:02.251Z,9.34
2019-03-13T16:17:28.989Z,9.23
2019-03-13T16:19:55.691Z,9.10
2019-03-13T16:22:22.879Z,8.96
2019-03-13T16:24:49.562Z,8.87
2019-03-13T16:27:16.195Z,8.74
2019-03-13T16:29:42.842Z,8.65
2019-03-13T16:32:11.046Z,8.58
2019-03-13T16:34:37.934Z,8.55
2019-03-13T16:37:04.686Z,8.47
2019-03-13T16:39:31.497Z,8.41
2019-03-13T16:41:58.280Z,8.39
2019-03-13T16:44:24.933Z,8.38
2019-03-13T16:46:51.628Z,8.34
2019-03-13T16:49:18.494Z,8.35
2019-03-13T16:51:45.191Z,8.32
2019-03-13T16:54:11.763Z,8.29
2019-03-13T16:56:38.554Z,8.11
2019-03-13T16:59:05.305Z,7.99
2019-03-13T17:01:32.027Z,7.73
2019-03-13T17:03:58.761Z,7.57
2019-03-13T17:06:25.430Z,7.43
2019-03-13T17:08:52.107Z,7.30
2019-03-13T17:11:18.656Z,7.18
2019-03-13T17:13:47.681Z,7.13
2019-03-13T17:16:14.506Z,7.12
2019-03-13T17:18:41.336Z,7.11
2019-03-13T17:21:08.276Z,7.13
2019-03-13T17:23:34.954Z,7.13
2019-03-13T17:26:01.670Z,7.12
2019-03-13T17:28:28.495Z,7.06
2019-03-13T17:30:55.256Z,6.99
2019-03-13T17:33:21.978Z,6.94
2019-03-13T17:35:48.604Z,6.90
2019-03-13T17:38:15.557Z,6.85
2019-03-13T17:40:42.116Z,6.83
2019-03-13T17:43:08.802Z,6.81
2019-03-13T17:45:35.481Z,6.89
2019-03-13T17:48:02.299Z,6.83
2019-03-13T17:50:29.135Z,6.81
2019-03-13T17:52:55.897Z,6.83
2019-03-13T17:55:22.683Z,6.81
2019-03-13T17:57:49.521Z,6.76
2019-03-13T18:00:18.238Z,6.71
2019-03-13T18:02:45.144Z,6.69
2019-03-13T18:05:11.925Z,6.66
2019-03-13T18:07:38.650Z,6.63
2019-03-13T18:10:07.490Z,6.61
2019-03-13T18:12:34.339Z,6.58
2019-03-13T18:15:00.891Z,6.50
2019-03-13T18:17:27.583Z,6.48
2019-03-13T18:19:54.255Z,6.43
2019-03-13T18:22:21.026Z,6.40
2019-03-13T18:24:47.875Z,6.37
2019-03-13T18:27:14.634Z,6.38
2019-03-13T18:29:41.315Z,6.37
2019-03-13T18:32:08.150Z,6.36
2019-03-13T18:34:34.943Z,6.40
2019-03-13T18:37:01.703Z,6.41
2019-03-13T18:39:28.495Z,6.45
2019-03-13T18:41:55.138Z,6.45
2019-03-13T18:44:21.937Z,6.44
2019-03-13T18:46:48.721Z,6.46
2019-03-13T18:49:15.434Z,6.50
2019-03-13T18:51:42.136Z,6.53
2019-03-13T18:54:08.994Z,6.58
2019-03-13T18:56:38.423Z,6.61
2019-03-13T18:59:04.655Z,6.63
2019-03-13T19:01:31.471Z,6.67
2019-03-13T19:03:58.254Z,6.67
2019-03-13T19:06:25.024Z,6.64
2019-03-13T19:08:51.825Z,6.60
2019-03-13T19:11:18.704Z,6.56
2019-03-13T19:13:45.461Z,6.49
2019-03-13T19:16:12.322Z,6.46
2019-03-13T19:18:38.987Z,6.45
2019-03-13T19:21:05.813Z,6.43
2019-03-13T19:23:32.485Z,6.36
2019-03-13T19:25:59.125Z,6.33
2019-03-13T19:28:26.056Z,6.27
2019-03-13T19:30:52.708Z,6.19
2019-03-13T19:33:19.521Z,6.15
2019-03-13T19:35:46.425Z,6.09
2019-03-13T19:38:13.448Z,6.06
2019-03-13T19:40:40.206Z,6.00
2019-03-13T19:43:07.033Z,5.99
2019-03-13T19:45:36.093Z,5.97
2019-03-13T19:48:02.966Z,5.95
2019-03-13T19:50:29.611Z,5.93
2019-03-13T19:52:56.317Z,5.92
2019-03-13T19:55:23.127Z,5.93
2019-03-13T19:57:49.869Z,5.93
2019-03-13T20:00:17.557Z,5.92
2019-03-13T20:02:44.232Z,5.92
2019-03-13T20:05:11.973Z,5.92
2019-03-13T20:07:38.857Z,5.88
2019-03-13T20:10:09.004Z,5.85
2019-03-13T20:12:35.600Z,5.85
2019-03-13T20:15:02.456Z,5.87
2019-03-13T20:17:29.123Z,5.87
2019-03-13T20:19:55.928Z,5.94
2019-03-13T20:22:22.984Z,5.97
2019-03-13T20:24:50.010Z,6.00
2019-03-13T20:27:16.692Z,6.02
2019-03-13T20:29:43.446Z,6.02
2019-03-13T20:32:10.237Z,6.02
2019-03-13T20:34:37.031Z,6.00
2019-03-13T20:37:04.823Z,5.98
2019-03-13T20:39:31.823Z,5.95
2019-03-13T20:41:58.645Z,5.87
2019-03-13T20:44:26.520Z,5.88
2019-03-13T20:46:53.491Z,5.87
2019-03-13T20:49:20.352Z,5.85
2019-03-13T20:51:47.114Z,5.79
2019-03-13T20:54:14.875Z,5.77
2019-03-13T20:56:41.862Z,5.74
2019-03-13T20:59:08.827Z,5.68
2019-03-13T21:01:35.878Z,5.66
2019-03-13T21:04:02.867Z,5.63
2019-03-13T21:06:29.758Z,5.65
2019-03-13T21:08:56.583Z,5.65
2019-03-13T21:11:23.486Z,5.65
2019-03-13T21:13:50.474Z,5.70
2019-03-13T21:16:17.541Z,5.72
2019-03-13T21:18:53.475Z,5.76
2019-03-13T21:21:21.473Z,5.75
2019-03-13T21:23:54.241Z,5.73
2019-03-13T21:26:22.114Z,5.72
2019-03-13T21:28:49.045Z,5.73
2019-03-13T21:31:15.991Z,5.71
2019-03-13T21:33:43.712Z,5.59
2019-03-13T21:36:10.517Z,5.44
2019-03-13T21:38:37.304Z,5.31
2019-03-13T21:41:04.456Z,5.19
2019-03-13T21:43:31.137Z,4.99
2019-03-13T21:45:58.053Z,4.87
2019-03-13T21:48:24.771Z,4.80
2019-03-13T21:50:51.700Z,4.72
2019-03-13T21:53:18.500Z,4.69
2019-03-13T21:55:45.230Z,4.69
2019-03-13T21:58:12.257Z,4.69
2019-03-13T22:00:39.945Z,4.70
2019-03-13T22:03:06.723Z,4.71
2019-03-13T22:05:34.509Z,4.74
2019-03-13T22:08:01.560Z,4.75
2019-03-13T22:10:28.455Z,4.75
2019-03-13T22:12:55.320Z,4.75
2019-03-13T22:15:22.169Z,4.81
2019-03-13T22:17:48.962Z,4.76
2019-03-13T22:20:15.951Z,4.78
2019-03-13T22:22:42.815Z,4.79
2019-03-13T22:25:10.260Z,4.85
2019-03-13T22:27:38.010Z,4.89
2019-03-13T22:30:05.996Z,4.91
2019-03-13T22:32:32.717Z,4.91
2019-03-13T22:34:59.502Z,4.94
2019-03-13T22:37:26.219Z,4.97
2019-03-13T22:39:53.203Z,4.98
2019-03-13T22:42:19.874Z,5.02
2019-03-13T22:44:46.539Z,5.04
2019-03-13T22:47:13.423Z,5.07
2019-03-13T22:49:40.140Z,5.06
2019-03-13T22:52:07.035Z,5.09
2019-03-13T22:54:33.648Z,5.10
2019-03-13T22:57:00.437Z,5.16
2019-03-13T22:59:27.077Z,5.16
2019-03-13T23:01:53.747Z,5.19
2019-03-13T23:04:20.384Z,5.22
2019-03-13T23:06:48.104Z,5.23
2019-03-13T23:09:14.950Z,5.24
2019-03-13T23:11:41.503Z,5.26
2019-03-13T23:14:08.141Z,5.24
2019-03-13T23:16:34.828Z,5.25
2019-03-13T23:19:01.543Z,5.24
2019-03-13T23:21:28.315Z,5.24
2019-03-13T23:23:54.987Z,5.24
2019-03-13T23:26:21.674Z,5.23
2019-03-13T23:28:48.337Z,5.22
2019-03-13T23:31:15.011Z,5.20
2019-03-13T23:33:41.662Z,5.22
2019-03-13T23:36:08.345Z,5.16
2019-03-13T23:38:34.948Z,5.15
2019-03-13T23:41:01.501Z,5.09
2019-03-13T23:43:28.494Z,5.06
2019-03-13T23:45:55.524Z,5.01
2019-03-13T23:48:22.148Z,5.01
2019-03-13T23:50:48.703Z,4.97
2019-03-13T23:53:15.395Z,4.96
2019-03-13T23:55:42.189Z,4.89
2019-03-13T23:58:11.378Z,4.88
